Time;durP1;ratioP1;P1;durP2;ratioP2;P2;SDS_P1;SDS_P2;PMS_P1;PMS_P2;Temp;Humidity;BMP_temperature;BMP_pressure;BME280_temperature;BME280_humidity;BME280_pressure;Samples;Min_cycle;Max_cycle;Signal;HPM_P1;HPM_P2
2024/03/15 00:00:41;;;;;;;7.35;6.60;;;13.20;99.90;;;;;;4845489;29;20034;-93
2024/03/15 00:03:07;;;;;;;9.82;7.40;;;13.10;99.90;;;;;;4845686;29;20045;-92
2024/03/15 00:05:32;;;;;;;12.23;7.47;;;13.10;99.90;;;;;;4845075;29;20117;-92
2024/03/15 00:07:58;;;;;;;9.95;6.63;;;13.60;99.90;;;;;;4852219;29;20030;-92
2024/03/15 00:10:23;;;;;;;9.93;7.55;;;13.10;99.90;;;;;;4855355;29;20034;-92
2024/03/15 00:12:50;;;;;;;8.10;6.72;;;13.10;99.90;;;;;;4845239;29;20078;-92
2024/03/15 00:15:18;;;;;;;8.00;6.78;;;13.10;99.90;;;;;;4827545;29;20070;-93
2024/03/15 00:17:46;;;;;;;8.60;7.13;;;13.00;99.90;;;;;;4844718;29;20052;-93
2024/03/15 00:20:12;;;;;;;10.75;7.53;;;12.50;99.90;;;;;;4844731;29;20030;-93
2024/03/15 00:22:37;;;;;;;10.02;7.13;;;13.50;99.90;;;;;;4836634;29;20083;-93
2024/03/15 00:25:03;;;;;;;10.75;7.93;;;13.50;99.90;;;;;;4827399;29;20030;-94
2024/03/15 00:27:29;;;;;;;10.77;7.70;;;13.10;99.90;;;;;;4827082;29;20126;-93
2024/03/15 00:29:55;;;;;;;8.02;7.22;;;14.20;99.90;;;;;;4827134;29;20497;-94
2024/03/15 00:32:20;;;;;;;9.48;8.30;;;13.10;99.90;;;;;;4827278;29;20030;-93
2024/03/15 00:34:46;;;;;;;9.27;7.32;;;14.00;99.90;;;;;;4827096;29;20490;-94
2024/03/15 00:37:11;;;;;;;8.93;6.97;;;13.10;99.90;;;;;;4826711;29;20033;-92
2024/03/15 00:39:37;;;;;;;10.30;7.65;;;13.10;99.90;;;;;;4830403;29;20026;-93
2024/03/15 00:42:03;;;;;;;10.85;7.40;;;13.10;99.90;;;;;;4848149;29;20041;-93
2024/03/15 00:44:29;;;;;;;11.05;8.27;;;14.00;99.90;;;;;;4840335;29;20129;-93
2024/03/15 00:46:55;;;;;;;8.60;7.70;;;13.10;99.90;;;;;;4844385;29;20030;-93
2024/03/15 00:49:20;;;;;;;13.48;8.30;;;13.10;99.90;;;;;;4845435;29;20025;-93
2024/03/15 00:51:46;;;;;;;13.88;7.95;;;13.20;99.90;;;;;;4845070;29;20113;-93
2024/03/15 00:54:12;;;;;;;9.43;7.57;;;13.10;99.90;;;;;;4844918;29;20034;-93
2024/03/15 00:56:38;;;;;;;8.00;7.30;;;13.10;99.90;;;;;;4844741;29;20030;-93
2024/03/15 00:59:04;;;;;;;10.38;8.85;;;13.10;99.90;;;;;;4845588;29;20046;-93
2024/03/15 01:01:30;;;;;;;10.77;8.20;;;13.10;99.90;;;;;;4847638;29;20036;-94
2024/03/15 01:03:55;;;;;;;11.05;8.38;;;13.10;99.90;;;;;;4861003;29;20114;-92
2024/03/15 01:06:21;;;;;;;8.40;7.50;;;13.10;99.90;;;;;;4847234;29;20030;-93
2024/03/15 01:08:47;;;;;;;7.88;7.10;;;13.10;99.90;;;;;;4845517;29;20029;-93
2024/03/15 01:11:15;;;;;;;12.75;7.78;;;13.20;99.90;;;;;;4839863;29;20497;-93
2024/03/15 01:13:41;;;;;;;9.23;7.93;;;13.20;99.90;;;;;;4845181;29;20038;-93
2024/03/15 01:16:09;;;;;;;11.27;7.57;;;13.20;99.90;;;;;;4845970;29;20102;-92
2024/03/15 01:18:34;;;;;;;11.05;7.95;;;13.10;99.90;;;;;;4834116;29;20052;-92
2024/03/15 01:21:00;;;;;;;10.50;8.48;;;13.10;99.90;;;;;;4827700;29;20026;-93
2024/03/15 01:23:25;;;;;;;9.43;8.45;;;13.10;99.90;;;;;;4826519;29;20139;-93
2024/03/15 01:25:51;;;;;;;8.50;7.70;;;13.10;99.90;;;;;;4843188;29;20046;-93
2024/03/15 01:28:16;;;;;;;10.15;7.38;;;13.00;99.90;;;;;;4844354;29;20034;-93
2024/03/15 01:30:45;;;;;;;11.02;7.57;;;13.10;99.90;;;;;;4844757;29;20130;-94
2024/03/15 01:33:11;;;;;;;15.85;7.85;;;13.10;99.90;;;;;;4845284;29;20033;-93
2024/03/15 01:35:36;;;;;;;11.20;6.90;;;13.10;99.90;;;;;;4844506;29;20033;-94
2024/03/15 01:41:31;;;;;;;10.70;8.15;;;13.10;99.90;;;;;;4845039;29;20053;-94
2024/03/15 01:43:56;;;;;;;13.27;8.50;;;13.10;99.90;;;;;;4843680;29;20056;-94
2024/03/15 01:46:23;;;;;;;10.00;7.60;;;13.10;99.90;;;;;;4843773;29;20033;-94
2024/03/15 01:48:48;;;;;;;13.60;8.60;;;13.10;99.90;;;;;;4844212;29;20105;-94
2024/03/15 01:51:14;;;;;;;11.40;8.10;;;13.00;99.90;;;;;;4842293;29;20112;-93
2024/03/15 01:53:39;;;;;;;10.45;7.25;;;13.10;99.90;;;;;;4844586;29;20026;-93
2024/03/15 01:56:05;;;;;;;10.75;8.00;;;13.00;99.90;;;;;;4834841;29;20046;-91
2024/03/15 01:58:31;;;;;;;11.90;8.10;;;13.00;99.90;;;;;;4840445;29;20142;-92
2024/03/15 02:00:57;;;;;;;11.50;7.50;;;12.90;99.90;;;;;;4828737;29;20130;-93
2024/03/15 02:03:23;;;;;;;11.55;8.02;;;12.90;99.90;;;;;;4826171;29;20026;-93
2024/03/15 02:05:49;;;;;;;10.02;7.40;;;12.90;99.90;;;;;;4827619;29;20034;-92
2024/03/15 02:08:20;;;;;;;11.98;7.05;;;12.90;99.90;;;;;;4842666;29;20502;-92
2024/03/15 02:10:46;;;;;;;9.45;7.43;;;12.40;99.90;;;;;;4843201;29;20038;-92
2024/03/15 02:13:16;;;;;;;7.70;6.55;;;12.90;99.90;;;;;;4843906;29;20386;-92
2024/03/15 02:15:42;;;;;;;8.93;6.65;;;12.90;99.90;;;;;;4843916;29;20390;-92
2024/03/15 02:18:08;;;;;;;11.18;7.13;;;13.00;99.90;;;;;;4843501;29;20044;-93
2024/03/15 02:20:34;;;;;;;7.38;6.68;;;13.00;99.90;;;;;;4843299;29;20030;-93
2024/03/15 02:22:59;;;;;;;10.75;7.60;;;13.00;99.90;;;;;;4843988;29;20175;-93
2024/03/15 02:25:25;;;;;;;13.88;7.60;;;13.30;99.90;;;;;;4844070;29;20030;-92
2024/03/15 02:27:51;;;;;;;13.27;8.30;;;13.00;99.90;;;;;;4840603;29;20498;-93
2024/03/15 02:30:17;;;;;;;8.52;6.90;;;14.50;99.90;;;;;;4840157;29;20037;-91
2024/03/15 02:32:42;;;;;;;12.52;7.38;;;13.00;99.90;;;;;;4843378;29;20042;-91
2024/03/15 02:35:08;;;;;;;11.18;7.57;;;12.60;99.90;;;;;;4843262;29;20121;-91
2024/03/15 02:37:36;;;;;;;12.18;6.72;;;13.10;99.90;;;;;;4843984;29;20038;-93
2024/03/15 02:40:02;;;;;;;8.23;7.30;;;12.80;99.90;;;;;;4843494;29;20109;-92
2024/03/15 02:42:28;;;;;;;10.60;6.65;;;13.00;99.90;;;;;;4843197;29;20076;-91
2024/03/15 02:44:54;;;;;;;9.57;7.70;;;12.80;99.90;;;;;;4843254;29;20065;-91
2024/03/15 02:47:25;;;;;;;9.05;7.50;;;12.80;99.90;;;;;;4843108;29;20026;-94
2024/03/15 02:49:52;;;;;;;10.18;7.15;;;12.80;99.90;;;;;;4843534;29;20034;-92
2024/03/15 02:52:17;;;;;;;11.50;6.82;;;12.80;99.90;;;;;;4856277;29;20022;-92
2024/03/15 02:54:43;;;;;;;8.10;7.25;;;12.80;99.90;;;;;;4844696;29;20387;-94
2024/03/15 02:57:09;;;;;;;10.13;7.07;;;12.70;99.90;;;;;;4841761;29;20395;-94
2024/03/15 02:59:35;;;;;;;10.90;6.95;;;12.70;99.90;;;;;;4843770;29;20474;-92
2024/03/15 03:02:00;;;;;;;9.95;6.95;;;12.70;99.90;;;;;;4829008;29;20037;-93
2024/03/15 03:04:26;;;;;;;7.93;7.18;;;12.20;99.90;;;;;;4825136;29;20069;-94
2024/03/15 03:06:52;;;;;;;12.07;7.03;;;12.70;99.90;;;;;;4825281;29;20364;-94
2024/03/15 03:09:18;;;;;;;8.40;7.32;;;12.70;99.90;;;;;;4826285;29;20054;-94
2024/03/15 03:11:44;;;;;;;10.68;6.75;;;12.70;99.90;;;;;;4828263;29;20076;-93
2024/03/15 03:14:09;;;;;;;10.75;6.68;;;12.70;99.90;;;;;;4844861;29;20029;-93
2024/03/15 03:16:35;;;;;;;7.70;6.75;;;12.70;99.90;;;;;;4848835;29;20041;-93
2024/03/15 03:19:04;;;;;;;8.20;7.40;;;12.80;99.90;;;;;;4855974;29;20038;-93
2024/03/15 03:21:30;;;;;;;9.23;6.57;;;12.70;99.90;;;;;;4851352;29;20086;-93
2024/03/15 03:24:00;;;;;;;7.75;6.25;;;13.00;99.90;;;;;;4844777;29;20073;-92
2024/03/15 03:26:26;;;;;;;8.57;7.38;;;13.10;99.90;;;;;;4841856;29;20034;-92
2024/03/15 03:28:52;;;;;;;10.15;6.72;;;12.70;99.90;;;;;;4841303;29;20039;-93
2024/03/15 03:31:19;;;;;;;9.70;6.72;;;12.70;99.90;;;;;;4831193;29;20115;-93
2024/03/15 03:33:44;;;;;;;11.38;6.85;;;13.30;99.90;;;;;;4829242;29;20037;-93
2024/03/15 03:36:11;;;;;;;10.65;7.10;;;12.70;99.90;;;;;;4828869;29;20022;-92
2024/03/15 03:38:37;;;;;;;8.88;6.28;;;12.70;99.90;;;;;;4837740;29;20076;-91
2024/03/15 03:41:03;;;;;;;8.77;6.68;;;12.70;99.90;;;;;;4843250;29;20050;-92
2024/03/15 03:43:30;;;;;;;6.90;5.75;;;12.70;99.90;;;;;;4846797;29;20042;-94
2024/03/15 03:45:56;;;;;;;9.10;7.07;;;12.70;99.90;;;;;;4863298;29;20048;-92
2024/03/15 03:48:22;;;;;;;9.15;6.55;;;12.70;99.90;;;;;;4849565;29;20034;-93
2024/03/15 03:50:48;;;;;;;8.00;6.25;;;12.70;99.90;;;;;;4847232;29;20467;-92
2024/03/15 03:53:14;;;;;;;11.07;6.32;;;12.70;99.90;;;;;;4846396;29;20090;-92
2024/03/15 03:55:40;;;;;;;8.77;6.78;;;12.70;99.90;;;;;;4846133;29;20030;-93
2024/03/15 03:58:07;;;;;;;11.07;6.65;;;12.80;99.90;;;;;;4845733;29;20053;-93
2024/03/15 04:00:34;;;;;;;6.55;5.93;;;12.40;99.90;;;;;;4844869;29;20563;-92
2024/03/15 04:03:02;;;;;;;7.35;5.97;;;12.80;99.90;;;;;;4845618;29;20052;-93
2024/03/15 04:05:28;;;;;;;10.13;6.70;;;12.80;99.90;;;;;;4841271;29;20031;-93
2024/03/15 04:07:55;;;;;;;8.25;6.20;;;12.80;99.90;;;;;;4827534;29;20031;-93
2024/03/15 04:10:20;;;;;;;6.97;5.70;;;12.80;99.90;;;;;;4827811;29;20031;-93
2024/03/15 04:12:46;;;;;;;16.10;6.85;;;12.80;99.90;;;;;;4841837;29;20105;-94
2024/03/15 04:15:14;;;;;;;10.18;6.13;;;12.80;99.90;;;;;;4846363;29;20022;-95
2024/03/15 04:17:41;;;;;;;8.00;5.65;;;12.80;99.90;;;;;;4845812;29;20493;-95
2024/03/15 04:20:12;;;;;;;7.90;5.68;;;12.80;99.90;;;;;;4846499;29;20083;-91
2024/03/15 04:22:38;;;;;;;9.23;5.78;;;12.80;99.90;;;;;;4845627;29;20044;-92
2024/03/15 04:25:05;;;;;;;8.15;5.85;;;14.10;99.90;;;;;;4843707;29;20048;-92
2024/03/15 04:27:33;;;;;;;9.02;6.50;;;12.90;99.90;;;;;;4845017;29;20121;-92
2024/03/15 04:30:07;;;;;;;8.45;5.30;;;12.90;99.90;;;;;;4846810;29;20122;-92
2024/03/15 04:32:34;;;;;;;8.10;5.88;;;12.90;99.90;;;;;;4845758;29;20041;-92
2024/03/15 04:35:00;;;;;;;11.30;5.28;;;12.90;99.90;;;;;;4845704;29;20415;-93
2024/03/15 04:37:26;;;;;;;8.02;5.30;;;12.90;99.90;;;;;;4845348;29;20062;-91
2024/03/15 04:39:52;;;;;;;7.28;5.20;;;12.90;99.90;;;;;;4854975;29;20018;-93
2024/03/15 04:42:18;;;;;;;9.18;5.47;;;12.90;99.90;;;;;;4846663;29;20037;-93
2024/03/15 04:44:43;;;;;;;6.82;4.97;;;12.90;99.90;;;;;;4840985;29;20047;-91
2024/03/15 04:47:09;;;;;;;8.40;5.30;;;12.90;99.90;;;;;;4835754;29;20033;-93
2024/03/15 04:49:34;;;;;;;12.02;5.90;;;12.90;99.90;;;;;;4845913;29;20030;-92
2024/03/15 04:52:00;;;;;;;7.57;5.43;;;12.90;99.90;;;;;;4843387;29;20041;-92
2024/03/15 04:54:26;;;;;;;7.53;5.13;;;12.90;99.90;;;;;;4846235;29;20054;-91
2024/03/15 04:56:53;;;;;;;9.45;5.95;;;12.90;99.90;;;;;;4844813;29;20057;-92
2024/03/15 04:59:19;;;;;;;8.77;5.80;;;12.80;99.90;;;;;;4845599;29;20482;-92
2024/03/15 05:01:45;;;;;;;9.02;5.97;;;13.00;99.90;;;;;;4845222;29;20026;-92
2024/03/15 05:04:10;;;;;;;14.50;6.32;;;12.70;99.90;;;;;;4844247;29;20041;-92
2024/03/15 05:06:36;;;;;;;9.48;6.55;;;12.70;99.90;;;;;;4842550;29;20395;-93
2024/03/15 05:09:03;;;;;;;7.90;5.45;;;12.70;99.90;;;;;;4844585;29;20048;-93
2024/03/15 05:11:29;;;;;;;9.27;6.30;;;12.60;99.90;;;;;;4844801;29;20030;-93
2024/03/15 05:13:54;;;;;;;12.43;6.80;;;12.60;99.90;;;;;;4841695;29;20498;-91
2024/03/15 05:16:20;;;;;;;7.55;6.28;;;13.00;99.90;;;;;;4844652;29;20618;-92
2024/03/15 05:18:45;;;;;;;7.38;6.68;;;12.50;99.90;;;;;;4844935;29;20034;-92
2024/03/15 05:21:11;;;;;;;8.60;5.82;;;12.50;99.90;;;;;;4844790;29;20385;-93
2024/03/15 05:23:40;;;;;;;10.98;6.78;;;13.50;99.90;;;;;;4843575;29;20550;-92
2024/03/15 05:26:06;;;;;;;9.57;6.72;;;13.60;99.90;;;;;;4844055;29;20061;-94
2024/03/15 05:28:35;;;;;;;8.40;6.70;;;12.50;99.90;;;;;;4839135;29;20027;-92
2024/03/15 05:31:04;;;;;;;12.40;6.15;;;12.60;99.90;;;;;;4834056;29;20027;-94
2024/03/15 05:33:30;;;;;;;9.80;6.75;;;12.50;99.90;;;;;;5003109;24;20057;-94
2024/03/15 05:35:56;;;;;;;9.88;6.88;;;12.70;99.90;;;;;;4888183;29;20085;-93
2024/03/15 05:38:23;;;;;;;11.52;6.90;;;12.50;99.90;;;;;;4881888;29;20469;-94
2024/03/15 05:40:49;;;;;;;10.48;6.10;;;12.50;99.90;;;;;;4867197;29;20386;-92
2024/03/15 05:43:14;;;;;;;8.02;6.53;;;12.60;99.90;;;;;;4844401;29;20038;-92
2024/03/15 05:45:41;;;;;;;6.85;6.15;;;12.60;99.90;;;;;;4846790;29;20113;-93
2024/03/15 05:48:06;;;;;;;8.65;5.70;;;12.70;99.90;;;;;;4844370;29;20034;-90
2024/03/15 05:50:32;;;;;;;9.50;6.90;;;12.70;99.90;;;;;;4844407;29;20026;-94
2024/03/15 05:53:00;;;;;;;12.40;6.43;;;13.80;99.90;;;;;;4844129;29;20034;-93
2024/03/15 05:55:26;;;;;;;9.45;6.47;;;12.60;99.90;;;;;;4853655;29;20116;-93
2024/03/15 05:57:52;;;;;;;8.50;6.25;;;12.60;99.90;;;;;;4862127;29;20036;-93
2024/03/15 06:00:21;;;;;;;7.95;6.35;;;12.30;99.90;;;;;;4862775;29;20042;-93
2024/03/15 06:02:48;;;;;;;14.27;6.82;;;12.70;99.90;;;;;;4862173;29;20033;-93
2024/03/15 06:05:14;;;;;;;8.15;7.00;;;12.70;99.90;;;;;;4861107;29;20072;-94
2024/03/15 06:07:39;;;;;;;11.25;7.82;;;13.50;99.90;;;;;;4860552;29;20067;-93
2024/03/15 06:10:05;;;;;;;12.52;7.70;;;12.70;99.90;;;;;;4860382;29;20037;-94
2024/03/15 06:12:31;;;;;;;11.85;7.63;;;12.70;99.90;;;;;;4843809;29;20406;-88
2024/03/15 06:14:56;;;;;;;13.15;7.50;;;12.70;99.90;;;;;;4845088;29;20083;-88
2024/03/15 06:17:22;;;;;;;10.70;7.97;;;12.70;99.90;;;;;;4844791;29;20037;-91
2024/03/15 06:19:51;;;;;;;9.70;7.10;;;12.40;99.90;;;;;;4838983;29;20082;-93
2024/03/15 06:22:17;;;;;;;10.95;7.65;;;12.70;99.90;;;;;;4844080;29;20101;-93
2024/03/15 06:24:45;;;;;;;9.55;7.25;;;12.70;99.90;;;;;;4843949;29;20147;-94
2024/03/15 06:27:13;;;;;;;10.48;7.68;;;12.70;99.90;;;;;;4847165;29;20054;-93
2024/03/15 06:29:40;;;;;;;10.50;7.20;;;12.50;99.90;;;;;;4862204;29;20093;-94
2024/03/15 06:32:07;;;;;;;7.57;6.88;;;12.70;99.90;;;;;;4861997;29;20046;-93
2024/03/15 06:34:35;;;;;;;11.52;7.25;;;12.60;99.90;;;;;;4857249;29;20025;-93
2024/03/15 06:37:05;;;;;;;8.43;6.47;;;12.60;99.90;;;;;;4845764;29;20033;-93
2024/03/15 06:42:20;;;;;;;9.75;7.20;;;13.10;99.90;;;;;;4862041;29;20037;-93
2024/03/15 06:44:50;;;;;;;11.38;6.25;;;12.60;99.90;;;;;;4861935;29;20041;-94
2024/03/15 06:47:17;;;;;;;16.83;7.90;;;12.60;99.90;;;;;;4861146;29;20058;-95
2024/03/15 06:49:54;;;;;;;12.70;7.50;;;12.50;99.90;;;;;;4853467;29;20034;-95
2024/03/15 06:52:35;;;;;;;13.32;7.68;;;12.50;99.90;;;;;;4862183;29;20029;-92
2024/03/15 06:55:02;;;;;;;16.67;8.48;;;13.20;99.90;;;;;;4861780;29;20113;-94
2024/03/15 06:57:28;;;;;;;11.38;7.70;;;12.60;99.90;;;;;;4867602;29;20041;-93
2024/03/15 06:59:54;;;;;;;10.32;6.68;;;12.80;99.90;;;;;;4879382;29;20029;-93
2024/03/15 07:02:19;;;;;;;12.60;7.00;;;12.70;99.90;;;;;;4868561;29;20371;-93
2024/03/15 07:04:49;;;;;;;15.20;7.85;;;12.60;99.90;;;;;;4862604;29;20044;-93
2024/03/15 07:07:15;;;;;;;9.32;7.03;;;12.70;99.90;;;;;;4880482;29;20033;-94
2024/03/15 07:09:40;;;;;;;9.20;7.05;;;12.80;99.90;;;;;;4877949;29;20037;-93
2024/03/15 07:12:06;;;;;;;7.55;6.47;;;13.10;99.90;;;;;;4864982;29;20558;-93
2024/03/15 07:14:32;;;;;;;10.73;6.25;;;12.80;99.90;;;;;;4862019;29;20537;-93
2024/03/15 07:16:58;;;;;;;11.85;6.90;;;12.90;99.90;;;;;;4853856;29;20033;-93
2024/03/15 07:19:23;;;;;;;11.27;6.25;;;12.80;99.90;;;;;;4862891;29;20036;-93
2024/03/15 07:21:49;;;;;;;11.02;6.05;;;12.90;99.90;;;;;;4875691;29;20053;-93
2024/03/15 07:24:14;;;;;;;8.25;5.32;;;12.90;99.90;;;;;;4863855;29;20090;-93
2024/03/15 07:26:40;;;;;;;12.32;6.15;;;12.80;99.90;;;;;;4862123;29;20466;-92
2024/03/15 07:29:06;;;;;;;9.52;5.40;;;12.80;99.90;;;;;;4862164;29;20113;-94
2024/03/15 07:31:32;;;;;;;10.25;6.00;;;12.50;99.90;;;;;;4866196;29;20018;-93
2024/03/15 07:33:57;;;;;;;12.45;5.28;;;12.80;99.90;;;;;;4861488;29;20377;-93
2024/03/15 07:36:24;;;;;;;9.90;5.25;;;12.90;99.90;;;;;;4853226;29;20022;-93
2024/03/15 07:38:53;;;;;;;13.40;5.90;;;13.10;99.90;;;;;;4861222;29;20034;-93
2024/03/15 07:41:18;;;;;;;9.40;5.20;;;12.90;99.90;;;;;;4861594;29;20021;-93
2024/03/15 07:43:44;;;;;;;14.40;5.28;;;12.50;99.90;;;;;;4862072;29;20383;-95
2024/03/15 07:46:10;;;;;;;11.07;5.57;;;12.90;99.90;;;;;;4862255;29;20481;-95
2024/03/15 07:48:35;;;;;;;14.60;4.88;;;13.00;99.90;;;;;;4864625;29;20037;-92
2024/03/15 07:51:01;;;;;;;9.93;4.78;;;12.70;99.90;;;;;;4861176;29;20088;-89
2024/03/15 07:53:27;;;;;;;11.27;5.57;;;13.00;99.90;;;;;;4861280;29;20079;-91
2024/03/15 07:55:54;;;;;;;8.52;4.88;;;13.00;99.90;;;;;;4859064;29;20500;-90
2024/03/15 07:58:19;;;;;;;10.48;4.30;;;12.90;99.90;;;;;;4860162;29;20066;-91
2024/03/15 08:00:45;;;;;;;10.07;4.47;;;12.90;99.90;;;;;;4851215;29;20491;-91
2024/03/15 08:03:11;;;;;;;6.38;3.53;;;12.90;99.90;;;;;;4855643;29;20041;-91
2024/03/15 08:05:38;;;;;;;11.48;4.45;;;12.10;99.90;;;;;;4846030;29;20038;-91
2024/03/15 08:08:07;;;;;;;14.52;4.28;;;12.90;99.90;;;;;;4859789;29;20462;-91
2024/03/15 08:10:33;;;;;;;12.15;4.43;;;12.90;99.90;;;;;;4857105;29;20026;-89
2024/03/15 08:12:59;;;;;;;6.43;4.10;;;13.40;99.90;;;;;;4859837;29;20030;-91
2024/03/15 08:15:29;;;;;;;12.95;4.20;;;12.90;99.90;;;;;;4860935;29;20440;-90
2024/03/15 08:17:56;;;;;;;9.13;4.20;;;12.80;99.90;;;;;;4862704;29;20088;-92
2024/03/15 08:20:22;;;;;;;8.70;3.72;;;12.80;99.90;;;;;;4862897;29;20033;-92
2024/03/15 08:22:48;;;;;;;7.20;3.58;;;12.80;99.90;;;;;;4862850;29;20033;-91
2024/03/15 08:25:13;;;;;;;6.00;3.67;;;12.90;99.90;;;;;;4864239;29;20030;-94
2024/03/15 08:27:41;;;;;;;6.95;3.70;;;12.90;99.90;;;;;;4864028;29;20056;-92
2024/03/15 08:30:08;;;;;;;5.90;3.50;;;12.90;99.90;;;;;;4859361;29;20037;-86
2024/03/15 08:32:34;;;;;;;12.13;4.78;;;12.90;99.90;;;;;;4863237;29;20116;-90
2024/03/15 08:35:05;;;;;;;16.33;4.50;;;13.00;99.90;;;;;;4862281;29;20398;-91
2024/03/15 08:37:31;;;;;;;13.27;5.20;;;13.00;99.90;;;;;;4862359;29;20041;-89
2024/03/15 08:39:56;;;;;;;11.38;5.65;;;13.00;99.90;;;;;;4862224;29;20030;-87
2024/03/15 08:42:22;;;;;;;10.45;5.20;;;13.00;99.90;;;;;;4855742;29;20034;-88
2024/03/15 08:44:49;;;;;;;14.75;5.25;;;12.70;99.90;;;;;;4854690;29;20494;-93
2024/03/15 08:47:18;;;;;;;11.02;5.07;;;13.00;99.90;;;;;;4862941;29;20041;-90
2024/03/15 08:49:45;;;;;;;14.75;5.45;;;13.00;99.90;;;;;;4863016;29;20048;-93
2024/03/15 08:52:15;;;;;;;13.00;5.35;;;13.20;99.90;;;;;;4863988;29;20045;-92
2024/03/15 08:54:41;;;;;;;11.10;4.07;;;14.30;99.90;;;;;;4862193;29;20033;-90
2024/03/15 08:57:10;;;;;;;10.45;4.22;;;13.00;99.90;;;;;;4845572;29;20037;-93
2024/03/15 08:59:36;;;;;;;10.57;3.92;;;13.10;99.90;;;;;;4855567;29;20033;-92
2024/03/15 09:02:03;;;;;;;12.43;4.28;;;13.10;99.90;;;;;;4851349;29;20033;-87
2024/03/15 09:04:28;;;;;;;12.13;4.28;;;13.20;99.90;;;;;;4859657;29;20068;-86
2024/03/15 09:06:55;;;;;;;5.78;3.38;;;13.20;99.90;;;;;;4861608;29;20823;-86
2024/03/15 09:09:31;;;;;;;18.80;5.22;;;13.30;99.90;;;;;;4862904;29;20037;-88
2024/03/15 09:11:57;;;;;;;9.73;4.25;;;13.40;99.90;;;;;;4854579;29;20155;-85
2024/03/15 09:14:24;;;;;;;9.93;4.15;;;12.80;99.90;;;;;;4843034;29;20026;-88
2024/03/15 09:16:50;;;;;;;11.75;3.65;;;13.00;99.90;;;;;;4845263;29;20022;-93
2024/03/15 09:19:21;;;;;;;12.45;3.97;;;13.50;99.90;;;;;;4844992;29;20436;-90
2024/03/15 09:21:48;;;;;;;11.02;3.95;;;13.50;99.90;;;;;;4847115;29;20506;-91
2024/03/15 09:24:14;;;;;;;12.88;3.70;;;13.50;99.90;;;;;;4850681;29;20120;-90
2024/03/15 09:26:41;;;;;;;8.93;3.90;;;12.80;99.90;;;;;;4856578;29;20032;-90
2024/03/15 09:29:06;;;;;;;9.45;3.15;;;12.70;99.90;;;;;;4866055;29;20062;-90
2024/03/15 09:31:35;;;;;;;14.65;4.03;;;13.60;99.90;;;;;;4846949;29;509287;-85
2024/03/15 09:34:01;;;;;;;10.35;3.47;;;13.70;99.90;;;;;;4859177;29;20359;-82
2024/03/15 09:36:28;;;;;;;13.13;2.75;;;13.80;99.90;;;;;;4860584;29;20036;-83
2024/03/15 09:38:57;;;;;;;7.95;2.67;;;13.60;99.90;;;;;;4860472;29;20470;-82
2024/03/15 09:41:22;;;;;;;8.13;2.55;;;14.40;99.90;;;;;;4857551;29;20490;-85
2024/03/15 09:43:48;;;;;;;8.25;2.28;;;15.00;99.90;;;;;;4856404;29;20069;-85
2024/03/15 09:46:17;;;;;;;13.32;2.97;;;13.80;99.90;;;;;;4859753;29;20473;-85
2024/03/15 09:48:51;;;;;;;9.05;2.85;;;14.10;99.90;;;;;;4861105;29;20034;-84
2024/03/15 09:51:17;;;;;;;6.95;2.92;;;13.80;99.90;;;;;;4859574;29;20481;-85
2024/03/15 09:53:45;;;;;;;11.50;3.50;;;13.80;99.90;;;;;;4860864;29;20040;-85
2024/03/15 09:56:15;;;;;;;11.65;2.75;;;13.70;99.90;;;;;;4858831;29;20055;-84
2024/03/15 09:58:42;;;;;;;10.63;2.60;;;14.40;99.90;;;;;;4860748;29;20142;-84
2024/03/15 10:01:15;;;;;;;9.85;2.83;;;13.70;99.90;;;;;;4859515;29;20116;-85
2024/03/15 10:03:47;;;;;;;9.40;2.63;;;13.80;99.90;;;;;;4858849;29;20037;-91
2024/03/15 10:06:15;;;;;;;15.20;2.92;;;13.70;99.90;;;;;;4860656;29;20409;-84
2024/03/15 10:08:41;;;;;;;10.20;2.80;;;13.70;99.90;;;;;;4860907;29;20029;-86
2024/03/15 10:11:07;;;;;;;15.40;2.58;;;14.00;99.90;;;;;;4857082;29;20026;-85
2024/03/15 10:13:33;;;;;;;10.30;3.20;;;13.80;99.90;;;;;;4851328;29;20063;-89
2024/03/15 10:16:04;;;;;;;9.38;2.72;;;13.80;99.90;;;;;;4859723;29;20049;-87
2024/03/15 10:18:34;;;;;;;12.15;2.85;;;14.40;99.90;;;;;;4861800;29;20060;-85
2024/03/15 10:20:59;;;;;;;16.33;4.03;;;13.80;99.90;;;;;;4855908;29;20025;-86
2024/03/15 10:23:25;;;;;;;9.63;3.22;;;13.80;99.90;;;;;;4856653;29;20056;-91
2024/03/15 10:25:52;;;;;;;13.70;3.15;;;13.80;99.90;;;;;;4866487;29;20025;-93
2024/03/15 10:28:20;;;;;;;9.80;2.60;;;13.90;99.90;;;;;;4863547;29;20035;-92
2024/03/15 10:30:47;;;;;;;11.13;2.78;;;13.90;99.90;;;;;;4863551;29;20073;-92
2024/03/15 10:33:13;;;;;;;12.50;2.75;;;14.30;99.90;;;;;;4858781;29;20060;-92
2024/03/15 10:35:39;;;;;;;12.30;2.42;;;13.80;99.90;;;;;;4864475;29;20025;-94
2024/03/15 10:38:05;;;;;;;6.63;2.60;;;13.80;99.90;;;;;;4863877;29;20450;-94
2024/03/15 10:40:34;;;;;;;10.57;3.00;;;13.80;99.90;;;;;;4863985;29;20101;-91
2024/03/15 10:43:08;;;;;;;12.05;2.83;;;13.70;99.90;;;;;;4867246;29;20033;-94
2024/03/15 10:45:35;;;;;;;6.28;2.10;;;13.70;99.90;;;;;;4867635;29;20078;-91
2024/03/15 10:48:07;;;;;;;12.20;2.80;;;13.70;99.90;;;;;;5028359;23;20124;-93
2024/03/15 10:50:38;;;;;;;7.82;2.55;;;13.70;99.90;;;;;;4852554;29;20468;-95
2024/03/15 10:53:15;;;;;;;10.27;2.58;;;13.70;99.90;;;;;;4847180;29;20105;-92
2024/03/15 10:55:44;;;;;;;10.60;2.70;;;14.60;99.90;;;;;;4848719;29;20025;-87
2024/03/15 10:58:13;;;;;;;7.07;2.35;;;13.80;99.90;;;;;;4849154;29;20026;-86
2024/03/15 11:00:39;;;;;;;9.37;2.40;;;14.90;99.90;;;;;;4843566;29;20057;-87
2024/03/15 11:03:30;;;;;;;4.68;2.17;;;14.40;99.90;;;;;;4843969;29;20061;-92
2024/03/15 11:05:59;;;;;;;;;;;13.90;99.90;;;;;;4845691;29;20117;-85
2024/03/15 11:08:35;;;;;;;;;;;14.70;99.90;;;;;;4844966;29;19918;-92
2024/03/15 11:11:13;;;;;;;;;;;14.00;99.90;;;;;;4842383;29;19913;-89
2024/03/15 11:13:43;;;;;;;;;;;14.10;99.90;;;;;;4854442;29;19968;-88
2024/03/15 11:16:27;;;;;;;;;;;15.30;99.90;;;;;;4837108;29;19909;-94
2024/03/15 11:19:21;;;;;;;;;;;14.10;99.90;;;;;;4846510;29;19919;-96
2024/03/15 11:21:46;;;;;;;;;;;14.20;99.90;;;;;;4842710;29;19909;-92
2024/03/15 11:24:15;;;;;;;;;;;14.80;99.90;;;;;;4843302;29;20588;-91
2024/03/15 11:26:50;;;;;;;;;;;14.10;99.90;;;;;;4845316;29;19991;-95
2024/03/15 11:29:34;;;;;;;;;;;14.80;99.90;;;;;;4843138;29;20277;-91
2024/03/15 11:32:00;;;;;;;;;;;14.10;99.90;;;;;;4842136;29;20077;-91
2024/03/15 11:34:35;;;;;;;;;;;15.30;99.90;;;;;;4841634;29;20357;-89
2024/03/15 11:37:01;;;;;;;;;;;14.10;99.90;;;;;;4834408;29;20361;-92
2024/03/15 11:39:26;;;;;;;;;;;15.10;99.90;;;;;;4838005;29;19938;-91
2024/03/15 11:42:06;;;;;;;;;;;14.40;99.90;;;;;;4824823;29;19970;-92
2024/03/15 11:44:32;;;;;;;;;;;14.20;99.90;;;;;;4825568;29;19999;-90
2024/03/15 11:46:58;;;;;;;;;;;15.30;99.90;;;;;;4824228;29;20047;-91
2024/03/15 11:49:29;;;;;;;;;;;13.50;99.90;;;;;;4843675;29;19920;-91
2024/03/15 11:51:58;;;;;;;;;;;14.20;99.90;;;;;;4841518;29;20049;-90
2024/03/15 11:54:24;;;;;;;;;;;14.10;99.90;;;;;;4843916;29;20396;-89
2024/03/15 11:56:59;;;;;;;;;;;14.80;99.90;;;;;;4842854;29;19909;-91
2024/03/15 11:59:26;;;;;;;;;;;14.00;99.90;;;;;;4844593;29;20172;-90
2024/03/15 12:02:06;;;;;;;;;;;13.20;99.90;;;;;;4844125;29;19908;-90
2024/03/15 12:04:32;;;;;;;;;;;14.00;99.90;;;;;;4826919;29;19920;-89
2024/03/15 12:07:09;;;;;;;;;;;15.10;99.90;;;;;;4843792;29;19960;-91
2024/03/15 12:09:42;;;;;;;;;;;14.60;99.90;;;;;;4845348;29;20011;-88
2024/03/15 12:12:07;;;;;;;;;;;13.50;99.90;;;;;;4837009;29;19912;-89
2024/03/15 12:14:32;;;;;;;;;;;15.00;99.90;;;;;;4850554;29;20018;-90
2024/03/15 12:16:58;;;;;;;;;;;14.00;99.90;;;;;;4845446;29;20000;-91
2024/03/15 12:19:26;;;;;;;;;;;14.10;99.90;;;;;;4859219;29;19912;-91
2024/03/15 12:21:51;;;;;;;;;;;14.10;99.90;;;;;;4864154;29;19998;-90
2024/03/15 12:24:17;;;;;;;;;;;14.10;99.90;;;;;;4830923;29;20011;-90
2024/03/15 12:26:43;;;;;;;;;;;14.40;99.90;;;;;;4828754;29;19958;-91
2024/03/15 12:29:08;;;;;;;;;;;14.60;99.90;;;;;;4827423;29;19909;-89
2024/03/15 12:31:43;;;;;;;;;;;14.80;99.90;;;;;;4822224;29;20250;-89
2024/03/15 12:34:09;;;;;;;;;;;14.00;99.90;;;;;;4827509;29;20523;-90
2024/03/15 12:36:49;;;;;;;;;;;14.00;99.90;;;;;;4827569;29;20382;-90
2024/03/15 12:39:15;;;;;;;;;;;14.00;99.90;;;;;;4827596;29;19913;-89
2024/03/15 12:41:41;;;;;;;;;;;15.20;99.90;;;;;;4843945;29;19935;-89
2024/03/15 12:44:08;;;;;;;;;;;14.60;99.90;;;;;;4848243;29;20045;-92
2024/03/15 12:46:33;;;;;;;;;;;14.90;99.90;;;;;;4838620;29;19909;-90
2024/03/15 12:48:59;;;;;;;;;;;14.90;99.90;;;;;;4825733;29;19920;-86
2024/03/15 12:51:25;;;;;;;;;;;14.20;99.90;;;;;;4825491;29;19913;-88
2024/03/15 12:53:55;;;;;;;;;;;15.20;99.90;;;;;;4831503;29;19920;-88
2024/03/15 12:56:32;;;;;;;;;;;14.30;99.90;;;;;;4843183;29;20691;-88
2024/03/15 12:58:58;;;;;;;;;;;14.10;99.90;;;;;;4843180;29;20017;-88
2024/03/15 13:01:23;;;;;;;;;;;14.70;99.90;;;;;;4841892;29;20409;-88